Terminal Aerodrome Forecast
Issued by NWS Sioux Falls, SD

Home | Current Version | Previous Version | Text Only | Print | Product List | Glossary On
Versions: 1 2 3 4 5 6 7 8 9 10 11 12 13 14 15 16 17 18 19 20 21 22 23 24 25 26 27 28 29 30 31 32 33 34 35 36 37 38
000
FTUS43 KFSD 292320
TAFSUX
TAF
KSUX 292320Z 3000/3024 08007KT P6SM SCT040 BKN120
     FM300600 10012KT P6SM BKN015
     FM301500 11012G16KT 5SM SHRA OVC015
     FM301900 15015G25KT P6SM BKN035=

USA.gov is the U.S. government's official web portal to all federal, state and local government web resources and services.